Airfield :
LOGIN :

Register | Disclaimer

   EN    FR    IT 

 










Legend :    VFR   Marginal VFR   IFR   Intensive IFR   Very Intensive IFR
Visi :
Ceiling :
>= 8 km
>= 3000ft
5 to 8 km
1000 to 3000 ft
1500m to 5 km
500 to 1000 ft
800 to 1500m
200 to 500 ft
< 800m
< 200 ft
Symbols :   Thunderstorms  Fog  Heavy snow  Heavy precipitations  Wind > 20 kt
SIGMETs :     Misc.  Thunderstorms  Icing  Turbulence  Mountain Waves  Volcanic Ashes






- Airport Elevation : 123 ft
- IATA code : BLQ


LIPE - Bologna Guglielmo Marconi

CURRENT METAR :
  • 281950Z 06007KT 9999 BKN023 20/15 Q1009

EXPIRED METARs :
  • 281920Z 10010KT 9999 BKN025 20/15 Q1009
  • 281850Z 10010KT 9999 SCT045 20/15 Q1009
  • 281820Z 09013KT 9999 SCT045 20/15 Q1008
  • 281750Z 11018KT 9999 SCT045 21/15 Q1007
  • 281720Z 09014KT 060V120 CAVOK 21/15 Q1006

TAF TAF LIPE
Valid from the 28 at 18:00 until the 29 at 18:00 UTC


281700Z 2818/2918 10012KT 9999 SCT030
TEMPO 2818/2903 4000 TSRA



MET'MAP, your aeronautical weather chart ! - Copyright ORBIFLY December 2007 - Disclaimer

ORBIFLY MET'MAP TEAM :

Programming & Development : Alexandra Zaïnal
Original concept : Baudouin d'Aumeries
Technical & hardware support : Manuel Goepfert
Assistance : Marc-Olivier Méhu

Contact : metmap@orbifly.com




SOURCES & CREDITS :

   NOAA